Time;durP1;ratioP1;P1;durP2;ratioP2;P2;SDS_P1;SDS_P2;PMS_P1;PMS_P2;Temp;Humidity;BMP_temperature;BMP_pressure;BME280_temperature;BME280_humidity;BME280_pressure;Samples;Min_cycle;Max_cycle;Signal;HPM_P1;HPM_P2
2023/09/07 10:03:32;;;;;;;3.40;2.00;;;;;;;25.41;40.77;99860.81;81945;1299;3013590;-79
2023/09/07 10:06:10;;;;;;;6.80;2.30;;;;;;;25.53;40.15;99861.73;79695;1299;3011590;-78
2023/09/07 10:08:38;;;;;;;4.70;1.70;;;;;;;25.53;39.94;99865.10;78582;1299;3050501;-77
2023/09/07 10:11:11;;;;;;;5.60;2.00;;;;;;;25.76;39.92;99862.65;79448;1304;3013752;-76
2023/09/07 10:13:40;;;;;;;11.20;2.20;;;;;;;25.96;39.15;99859.52;78426;1298;3068345;-77
2023/09/07 10:16:07;;;;;;;7.50;1.80;;;;;;;26.13;38.75;99864.11;77271;1293;6196163;-79
2023/09/07 10:18:38;;;;;;;3.60;2.10;;;;;;;25.99;38.05;99862.19;79726;1295;3011726;-79
2023/09/07 20:00:44;;;;;;;7.60;2.00;;;;;;;17.33;39.56;100113.68;80842;1292;3013125;-77
2023/09/07 20:03:11;;;;;;;7.60;2.10;;;;;;;17.31;39.20;100115.59;79873;1295;3018239;-75
2023/09/07 20:05:37;;;;;;;5.20;2.20;;;;;;;17.28;39.23;100114.91;79721;1295;3011681;-73
2023/09/07 20:08:05;;;;;;;4.10;2.30;;;;;;;17.28;39.15;100115.14;78644;1295;3026605;-75
2023/09/07 20:10:32;;;;;;;4.30;2.10;;;;;;;17.24;39.16;100115.05;80053;1295;3013369;-74
2023/09/07 20:12:59;;;;;;;14.90;2.20;;;;;;;17.22;39.56;100116.14;77750;1292;5985205;-74
2023/09/07 20:15:27;;;;;;;9.60;2.20;;;;;;;17.20;39.78;100115.90;78906;1289;3025936;-74
2023/09/07 20:17:53;;;;;;;5.90;2.40;;;;;;;17.17;39.88;100122.87;80038;1289;3013233;-74
2023/09/07 20:20:20;;;;;;;7.30;2.30;;;;;;;17.16;39.89;100121.52;80298;1289;3013105;-72
2023/09/07 20:22:48;;;;;;;11.30;2.00;;;;;;;17.15;39.80;100118.79;78925;1294;3026626;-73
2023/09/07 20:25:15;;;;;;;10.40;2.40;;;;;;;17.13;39.63;100122.30;79886;1289;3013148;-75
2023/09/07 20:27:42;;;;;;;8.00;2.50;;;;;;;17.12;40.01;100119.01;79934;1289;3011803;-77
2023/09/07 20:30:11;;;;;;;6.40;2.00;;;;;;;17.10;39.93;100124.98;78711;1294;3050125;-76
2023/09/07 20:32:38;;;;;;;8.10;2.40;;;;;;;17.06;40.43;100121.41;79977;1289;3014876;-75
2023/09/07 20:35:05;;;;;;;10.80;2.60;;;;;;;17.05;40.37;100121.51;79955;1293;3013092;-76
2023/09/07 20:37:33;;;;;;;12.80;1.90;;;;;;;17.04;40.44;100121.20;78863;1304;3051648;-78
2023/09/07 20:40:00;;;;;;;6.80;2.20;;;;;;;17.00;40.66;100122.64;80054;1292;3013160;-78
2023/09/07 20:42:27;;;;;;;6.10;2.20;;;;;;;16.94;40.87;100122.20;80026;1289;3012702;-78
2023/09/07 20:44:54;;;;;;;8.00;2.40;;;;;;;16.91;40.93;100118.64;78711;1289;3026314;-76
2023/09/07 20:47:21;;;;;;;10.10;2.40;;;;;;;16.86;41.19;100122.56;79958;1294;3013758;-81
2023/09/07 20:49:47;;;;;;;9.70;2.70;;;;;;;16.81;41.39;100125.06;79994;1292;3011719;-73
2023/09/07 20:52:15;;;;;;;10.40;3.20;;;;;;;16.79;40.87;100121.65;78820;1295;3028198;-76
2023/09/07 20:54:42;;;;;;;13.70;3.60;;;;;;;16.78;41.08;100125.29;80106;1293;3012601;-75
2023/09/07 20:57:08;;;;;;;10.60;3.50;;;;;;;16.77;41.14;100122.39;79794;1288;3013136;-75
2023/09/07 20:59:36;;;;;;;6.30;2.90;;;;;;;16.76;40.85;100119.73;78808;1292;3026836;-74
2023/09/07 21:02:03;;;;;;;11.30;2.60;;;;;;;16.76;41.12;100124.56;80008;1292;3012820;-68
2023/09/07 21:04:30;;;;;;;11.30;3.60;;;;;;;16.72;41.61;100123.42;79856;1291;3013008;-68
2023/09/07 21:06:58;;;;;;;12.20;3.60;;;;;;;16.68;41.53;100121.48;78670;1292;3051980;-65
2023/09/07 21:09:25;;;;;;;12.50;4.00;;;;;;;16.68;41.13;100123.26;79823;1294;3013066;-66
2023/09/07 21:11:52;;;;;;;10.90;4.50;;;;;;;16.66;41.12;100127.09;80017;1292;3011500;-68
2023/09/07 21:14:20;;;;;;;11.00;4.50;;;;;;;16.64;41.06;100128.98;78798;1294;3025961;-68
2023/09/07 21:16:46;;;;;;;10.50;5.00;;;;;;;16.64;41.19;100125.32;79895;1291;3012913;-65
2023/09/07 21:19:13;;;;;;;17.90;4.90;;;;;;;16.63;41.11;100126.23;79714;1294;3011919;-70
2023/09/07 21:21:41;;;;;;;13.50;4.20;;;;;;;16.61;41.23;100132.73;78852;1295;3028207;-68
2023/09/07 21:24:08;;;;;;;11.80;4.50;;;;;;;16.56;41.40;100131.00;79921;1292;3013154;-67
2023/09/07 21:26:34;;;;;;;10.30;4.40;;;;;;;16.53;41.25;100130.91;79879;1292;3011919;-68
2023/09/07 21:29:02;;;;;;;12.20;4.70;;;;;;;16.54;41.25;100132.91;78623;1294;3027983;-67
2023/09/07 21:31:29;;;;;;;9.00;4.40;;;;;;;16.50;41.47;100136.04;79742;1294;3013365;-69
2023/09/07 21:33:56;;;;;;;11.70;4.40;;;;;;;16.47;41.78;100134.02;79917;1292;3011903;-67
2023/09/07 21:36:24;;;;;;;13.80;4.20;;;;;;;16.47;41.74;100133.45;78593;1294;3026077;-68
2023/09/07 21:38:50;;;;;;;10.80;4.00;;;;;;;16.42;41.92;100127.14;79741;1292;3013831;-68
2023/09/07 21:41:17;;;;;;;13.70;4.00;;;;;;;16.37;42.16;100128.90;79922;1295;3013093;-70
2023/09/07 21:43:45;;;;;;;13.40;4.20;;;;;;;16.31;42.61;100124.70;78510;1294;3050349;-69
2023/09/07 21:46:12;;;;;;;17.00;4.40;;;;;;;16.27;42.57;100125.19;79805;1292;3013629;-68
2023/09/07 21:48:38;;;;;;;13.90;5.00;;;;;;;16.21;42.89;100124.77;79798;1292;3011531;-67
2023/09/07 21:51:07;;;;;;;17.40;4.90;;;;;;;16.18;42.99;100121.29;78657;1294;3025878;-68
2023/09/07 21:53:37;;;;;;;13.20;5.20;;;;;;;16.14;43.17;100121.61;79788;1292;3012956;-67
2023/09/07 21:56:05;;;;;;;16.00;5.40;;;;;;;16.12;42.95;100119.58;78468;1296;3056022;-67
2023/09/07 21:58:31;;;;;;;13.80;5.50;;;;;;;16.04;43.23;100121.60;79783;1289;3013114;-67
2023/09/07 22:00:58;;;;;;;15.00;5.70;;;;;;;15.98;43.52;100125.36;79890;1289;3011690;-67
2023/09/07 22:03:25;;;;;;;14.00;5.20;;;;;;;15.92;43.42;100134.44;78653;1295;3025954;-68
2023/09/07 22:05:53;;;;;;;12.00;5.70;;;;;;;15.90;43.56;100130.87;80006;1294;3018961;-67
2023/09/07 22:08:20;;;;;;;14.00;5.10;;;;;;;15.91;43.76;100133.80;79793;1289;3011774;-66
2023/09/07 22:10:48;;;;;;;11.50;5.10;;;;;;;15.89;43.67;100126.89;78775;1294;3057382;-67
2023/09/07 22:13:14;;;;;;;21.60;5.90;;;;;;;15.87;43.98;100125.81;79853;1292;3013118;-67
2023/09/07 22:15:41;;;;;;;16.10;5.10;;;;;;;15.85;43.96;100122.23;79839;1289;3011901;-67
2023/09/07 22:18:09;;;;;;;11.80;5.20;;;;;;;15.83;44.03;100113.42;78631;1294;3028136;-67
2023/09/07 22:20:35;;;;;;;15.40;5.00;;;;;;;15.79;44.22;100116.66;79828;1290;3018412;-68
2023/09/07 22:23:04;;;;;;;13.00;5.40;;;;;;;15.78;44.33;100119.49;79867;1289;3011860;-68
2023/09/07 22:25:32;;;;;;;15.00;5.90;;;;;;;15.78;44.26;100123.08;78695;1292;3055583;-68
2023/09/07 22:27:59;;;;;;;16.30;6.70;;;;;;;15.73;44.67;100118.16;79881;1294;3019079;-70
2023/09/07 22:30:25;;;;;;;16.50;6.70;;;;;;;15.64;45.03;100117.20;79831;1290;3011825;-69
2023/09/07 22:32:53;;;;;;;20.60;6.50;;;;;;;15.59;45.07;100112.94;78643;1294;3028832;-67
2023/09/07 22:35:20;;;;;;;14.40;6.40;;;;;;;15.56;45.46;100111.19;80050;1289;3013645;-69
2023/09/07 22:37:47;;;;;;;13.60;6.30;;;;;;;15.53;45.43;100111.60;79836;1294;3011857;-69
2023/09/07 22:40:15;;;;;;;16.40;7.10;;;;;;;15.53;45.44;100112.51;78629;1293;3027640;-67
2023/09/07 22:42:43;;;;;;;16.50;6.70;;;;;;;15.50;45.56;100116.60;79874;1289;3014131;-68
2023/09/07 22:45:13;;;;;;;17.10;6.70;;;;;;;15.48;45.62;100117.77;79877;1292;3011857;-67
2023/09/07 22:47:41;;;;;;;15.30;6.10;;;;;;;15.46;45.64;100120.20;78726;1294;3052053;-67
2023/09/07 22:50:08;;;;;;;15.80;6.00;;;;;;;15.42;45.67;100125.27;79978;1290;3012926;-69
2023/09/07 22:52:35;;;;;;;15.40;5.90;;;;;;;15.37;46.05;100125.77;79882;1289;3011851;-67
2023/09/07 22:55:04;;;;;;;15.30;6.60;;;;;;;15.34;46.09;100126.38;78691;1289;3026984;-67
2023/09/07 22:57:31;;;;;;;15.60;6.00;;;;;;;15.31;46.06;100127.82;79993;1289;3011827;-68
2023/09/07 22:59:58;;;;;;;18.80;6.60;;;;;;;15.28;46.35;100129.08;79891;1289;3011628;-67
2023/09/07 23:02:26;;;;;;;14.80;5.90;;;;;;;15.24;46.60;100132.69;78610;1294;3051919;-67
2023/09/07 23:04:53;;;;;;;15.70;5.30;;;;;;;15.22;46.35;100130.52;79887;1294;3018449;-68
2023/09/07 23:07:20;;;;;;;16.40;5.60;;;;;;;15.24;46.54;100132.02;79843;1289;3011644;-68
2023/09/07 23:09:49;;;;;;;11.30;4.80;;;;;;;15.22;46.82;100133.39;78605;1293;3056679;-68
2023/09/07 23:12:15;;;;;;;12.20;4.80;;;;;;;15.15;46.94;100134.90;79953;1290;3013269;-67
2023/09/07 23:14:42;;;;;;;11.90;4.70;;;;;;;15.09;47.26;100135.30;79858;1289;3011617;-69
2023/09/07 23:17:10;;;;;;;14.40;4.90;;;;;;;15.04;47.33;100133.19;78636;1292;3051982;-67
2023/09/07 23:19:37;;;;;;;13.10;4.50;;;;;;;15.05;47.19;100141.90;79832;1291;3019040;-68
2023/09/07 23:22:03;;;;;;;13.60;4.90;;;;;;;15.05;47.57;100141.23;80000;1290;3011356;-68
2023/09/07 23:24:31;;;;;;;15.50;5.30;;;;;;;15.06;47.45;100138.48;78646;1289;3026132;-68
2023/09/07 23:26:58;;;;;;;9.10;5.20;;;;;;;15.02;47.53;100140.52;79872;1291;3013242;-67
2023/09/07 23:29:24;;;;;;;13.80;5.40;;;;;;;15.01;47.54;100140.25;79761;1292;3011864;-68
2023/09/07 23:31:52;;;;;;;19.40;5.40;;;;;;;14.95;47.76;100140.35;78651;1294;3026278;-67
2023/09/07 23:34:18;;;;;;;15.50;5.70;;;;;;;14.89;48.30;100145.64;80094;1294;3012605;-69
2023/09/07 23:36:45;;;;;;;20.20;6.00;;;;;;;14.84;48.48;100147.08;79903;1289;3011753;-71
2023/09/07 23:39:13;;;;;;;18.70;5.40;;;;;;;14.82;48.57;100146.66;78675;1289;3027430;-71
2023/09/07 23:41:39;;;;;;;15.70;6.00;;;;;;;14.82;48.67;100147.36;79787;1294;3013745;-71
2023/09/07 23:44:06;;;;;;;20.60;6.90;;;;;;;14.78;48.63;100147.25;79931;1294;3012944;-70
2023/09/07 23:46:34;;;;;;;15.20;6.20;;;;;;;14.77;48.95;100148.39;78813;1294;3027062;-72
2023/09/07 23:49:00;;;;;;;14.30;6.60;;;;;;;14.73;49.15;100148.69;79980;1292;3018225;-68
2023/09/07 23:51:27;;;;;;;15.60;6.60;;;;;;;14.72;49.02;100145.05;79898;1291;3012989;-67
2023/09/07 23:53:55;;;;;;;16.90;5.90;;;;;;;14.69;49.16;100146.80;78714;1289;3026498;-67
2023/09/07 23:56:22;;;;;;;13.80;5.10;;;;;;;14.72;49.02;100142.89;79901;1290;3012936;-67
2023/09/07 23:58:48;;;;;;;14.80;5.50;;;;;;;14.72;49.13;100144.35;79838;1289;3013419;-67
